createdAt,value
2019-05-21T00:01:39.440Z,12.63
2019-05-21T00:04:27.156Z,12.63
2019-05-21T00:06:48.342Z,12.61
2019-05-21T00:09:21.598Z,12.59
2019-05-21T00:11:54.396Z,12.62
2019-05-21T00:14:27.639Z,12.60
2019-05-21T00:17:00.942Z,12.58
2019-05-21T00:19:34.869Z,12.59
2019-05-21T00:22:08.629Z,12.62
2019-05-21T00:24:41.959Z,12.62
2019-05-21T00:27:15.747Z,12.75
2019-05-21T00:30:42.033Z,12.67
2019-05-21T00:34:08.765Z,12.73
2019-05-21T00:37:35.248Z,12.70
2019-05-21T00:41:01.264Z,12.70
2019-05-21T00:44:00.214Z,12.69
2019-05-21T00:46:33.813Z,12.74
2019-05-21T00:49:07.932Z,12.68
2019-05-21T00:51:41.823Z,12.70
2019-05-21T00:54:15.672Z,12.69
2019-05-21T00:56:49.019Z,12.63
2019-05-21T00:59:23.029Z,12.65
2019-05-21T01:01:56.352Z,12.59
2019-05-21T01:04:30.290Z,12.57
2019-05-21T01:07:03.526Z,12.52
2019-05-21T01:09:36.863Z,12.56
2019-05-21T01:12:10.232Z,12.54
2019-05-21T01:14:44.043Z,12.56
2019-05-21T01:17:19.027Z,12.55
2019-05-21T01:19:52.507Z,12.59
2019-05-21T01:22:26.058Z,12.66
2019-05-21T01:24:59.415Z,12.65
2019-05-21T01:27:32.920Z,12.61
2019-05-21T01:30:07.180Z,12.60
2019-05-21T01:32:40.551Z,12.58
2019-05-21T01:35:17.127Z,12.66
2019-05-21T01:37:49.704Z,12.65
2019-05-21T01:40:23.002Z,12.69
2019-05-21T01:42:56.725Z,12.63
2019-05-21T01:45:29.972Z,12.61
2019-05-21T01:48:03.558Z,12.59
2019-05-21T01:50:36.775Z,12.61
2019-05-21T01:53:10.465Z,12.60
2019-05-21T01:55:43.610Z,12.60
2019-05-21T01:58:17.760Z,12.62
2019-05-21T02:00:51.923Z,12.71
2019-05-21T02:03:25.478Z,12.70
2019-05-21T02:05:59.648Z,12.69
2019-05-21T02:08:33.406Z,12.67
2019-05-21T02:11:07.247Z,12.65
2019-05-21T02:13:40.971Z,12.57
2019-05-21T02:16:14.750Z,12.52
2019-05-21T02:18:48.430Z,12.52
2019-05-21T02:21:24.069Z,12.48
2019-05-21T02:23:57.457Z,12.47
2019-05-21T02:26:31.376Z,12.49
2019-05-21T02:29:06.585Z,12.49
2019-05-21T02:31:39.761Z,12.47
2019-05-21T02:34:13.148Z,12.44
2019-05-21T02:36:47.420Z,12.43
2019-05-21T02:39:20.967Z,12.39
2019-05-21T02:41:54.208Z,12.33
2019-05-21T02:44:27.847Z,12.26
2019-05-21T02:47:01.307Z,12.21
2019-05-21T02:49:34.753Z,12.17
2019-05-21T02:52:08.358Z,12.19
2019-05-21T02:54:42.478Z,12.08
2019-05-21T02:57:16.344Z,12.06
2019-05-21T02:59:51.801Z,12.04
2019-05-21T03:02:34.140Z,12.02
2019-05-21T03:05:09.007Z,12.01
2019-05-21T03:07:43.613Z,11.98
2019-05-21T03:10:17.148Z,11.97
2019-05-21T03:12:50.696Z,11.89
2019-05-21T03:15:24.159Z,11.86
2019-05-21T03:17:58.417Z,11.86
2019-05-21T03:20:32.402Z,11.86
2019-05-21T03:23:05.981Z,11.86
2019-05-21T03:25:39.516Z,11.83
2019-05-21T03:28:13.182Z,11.83
2019-05-21T03:30:47.024Z,11.82
2019-05-21T03:33:20.422Z,11.79
2019-05-21T03:35:53.811Z,11.76
2019-05-21T03:38:27.709Z,11.79
2019-05-21T03:41:00.777Z,11.81
2019-05-21T03:43:34.695Z,11.82
2019-05-21T03:46:08.693Z,11.79
2019-05-21T03:48:42.641Z,11.80
2019-05-21T03:51:16.594Z,11.86
2019-05-21T03:53:50.546Z,11.89
2019-05-21T03:56:24.211Z,11.91
2019-05-21T03:58:58.926Z,11.93
2019-05-21T04:01:32.867Z,11.88
2019-05-21T04:04:06.868Z,11.89
2019-05-21T04:06:51.131Z,11.92
2019-05-21T04:09:16.465Z,11.94
2019-05-21T04:11:53.102Z,11.90
2019-05-21T04:14:50.408Z,11.95
2019-05-21T04:17:35.485Z,11.92
2019-05-21T04:20:10.009Z,11.92
2019-05-21T04:22:54.175Z,11.89
2019-05-21T04:25:28.903Z,11.92
2019-05-21T04:28:02.271Z,11.99
2019-05-21T04:30:35.537Z,12.01
2019-05-21T04:33:08.534Z,12.01
2019-05-21T04:35:41.918Z,11.99
2019-05-21T04:38:15.884Z,11.97
2019-05-21T04:40:49.217Z,11.99
2019-05-21T04:43:23.069Z,11.98
2019-05-21T04:45:56.290Z,12.01
2019-05-21T04:48:30.374Z,12.03
2019-05-21T04:51:04.468Z,12.05
2019-05-21T04:53:38.023Z,12.07
2019-05-21T04:56:11.616Z,12.11
2019-05-21T04:58:44.948Z,12.16
2019-05-21T05:01:18.807Z,12.21
2019-05-21T05:03:52.502Z,12.27
2019-05-21T05:06:26.338Z,12.32
2019-05-21T05:09:00.307Z,12.34
2019-05-21T05:11:34.334Z,12.29
2019-05-21T05:14:07.780Z,12.20
2019-05-21T05:16:41.279Z,12.16
2019-05-21T05:19:15.487Z,12.18
2019-05-21T05:21:49.304Z,12.15
2019-05-21T05:24:23.555Z,12.11
2019-05-21T05:26:57.086Z,12.17
2019-05-21T05:29:30.472Z,12.20
2019-05-21T05:32:04.350Z,12.18
2019-05-21T05:34:37.909Z,12.24
2019-05-21T05:37:11.750Z,12.25
2019-05-21T05:39:45.185Z,12.24
2019-05-21T05:42:18.175Z,12.28
2019-05-21T05:44:52.195Z,12.32
2019-05-21T05:47:27.888Z,12.31
2019-05-21T05:50:03.381Z,12.35
2019-05-21T05:52:37.259Z,12.37
2019-05-21T05:55:11.406Z,12.40
2019-05-21T05:57:45.530Z,12.40
2019-05-21T06:00:20.019Z,12.40
2019-05-21T06:02:54.457Z,12.42
2019-05-21T06:05:28.540Z,12.43
2019-05-21T06:08:03.032Z,12.46
2019-05-21T06:10:39.986Z,12.46
2019-05-21T06:13:12.402Z,12.49
2019-05-21T06:15:46.212Z,12.58
2019-05-21T06:18:20.125Z,12.56
2019-05-21T06:20:54.173Z,12.58
2019-05-21T06:23:28.436Z,12.58
2019-05-21T06:26:02.286Z,12.60
2019-05-21T06:28:38.376Z,12.61
2019-05-21T06:31:12.123Z,12.64
2019-05-21T06:33:46.584Z,12.69
2019-05-21T06:36:21.457Z,12.72
2019-05-21T06:38:55.553Z,12.75
2019-05-21T06:41:30.450Z,12.70
2019-05-21T06:44:04.825Z,12.69
2019-05-21T06:46:39.345Z,12.72
2019-05-21T06:49:12.946Z,12.70
2019-05-21T06:51:46.524Z,12.68
2019-05-21T06:54:20.428Z,12.73
2019-05-21T06:56:54.128Z,12.73
2019-05-21T06:59:27.852Z,12.85
2019-05-21T07:02:01.982Z,12.99
2019-05-21T07:04:35.527Z,13.07
2019-05-21T07:07:10.236Z,13.10
2019-05-21T07:09:43.917Z,13.20
2019-05-21T07:12:18.336Z,13.19
2019-05-21T07:14:52.365Z,13.21
2019-05-21T07:17:26.037Z,13.28
2019-05-21T07:19:59.424Z,13.38
2019-05-21T07:22:33.993Z,13.40
2019-05-21T07:25:07.880Z,13.53
2019-05-21T07:27:41.557Z,13.76
2019-05-21T07:30:16.302Z,13.90
2019-05-21T07:32:49.923Z,13.80
2019-05-21T07:35:23.764Z,14.29
2019-05-21T07:37:58.525Z,14.14
2019-05-21T07:40:32.846Z,14.43
2019-05-21T07:43:07.938Z,14.55
2019-05-21T07:45:42.382Z,14.57
2019-05-21T07:48:16.862Z,15.07
2019-05-21T07:50:50.807Z,15.01
2019-05-21T07:53:25.111Z,16.07
2019-05-21T07:55:59.144Z,16.38
2019-05-21T07:58:32.693Z,16.00
2019-05-21T08:01:06.913Z,15.23
2019-05-21T08:03:41.268Z,15.28
2019-05-21T08:06:16.081Z,15.71
2019-05-21T08:08:49.577Z,15.33
2019-05-21T08:11:23.878Z,16.08
2019-05-21T08:13:57.525Z,16.48
2019-05-21T08:16:34.189Z,16.29
2019-05-21T08:19:08.108Z,15.98
2019-05-21T08:21:41.540Z,15.52
2019-05-21T08:24:15.437Z,15.93
2019-05-21T08:26:48.942Z,15.95
2019-05-21T08:29:22.917Z,16.39
2019-05-21T08:31:56.567Z,17.18
2019-05-21T08:34:30.045Z,18.28
2019-05-21T08:37:04.008Z,18.45
2019-05-21T08:39:37.506Z,18.54
2019-05-21T08:42:11.276Z,17.89
2019-05-21T08:44:45.116Z,18.17
2019-05-21T08:47:18.536Z,18.42
2019-05-21T08:49:54.278Z,18.30
2019-05-21T08:52:27.967Z,18.74
2019-05-21T08:55:02.055Z,19.36
2019-05-21T08:57:35.188Z,19.39
2019-05-21T09:00:11.440Z,19.41
2019-05-21T09:02:49.203Z,19.92
2019-05-21T09:05:24.413Z,19.73
2019-05-21T09:07:58.327Z,19.99
2019-05-21T09:10:31.790Z,20.75
2019-05-21T09:13:05.795Z,20.80
2019-05-21T09:15:39.737Z,20.87
2019-05-21T09:18:13.683Z,20.70
2019-05-21T09:20:47.104Z,20.65
2019-05-21T09:23:20.328Z,20.59
2019-05-21T09:25:54.274Z,20.29
2019-05-21T09:28:28.580Z,20.47
2019-05-21T09:31:02.824Z,20.66
2019-05-21T09:33:36.473Z,20.11
2019-05-21T09:36:10.787Z,19.94
2019-05-21T09:38:45.575Z,19.82
2019-05-21T09:41:20.837Z,18.73
2019-05-21T09:43:55.896Z,18.40
2019-05-21T09:46:30.142Z,19.85
2019-05-21T09:49:04.043Z,20.39
2019-05-21T09:51:37.639Z,20.83
2019-05-21T09:54:10.980Z,21.46
2019-05-21T09:56:46.019Z,22.05
2019-05-21T09:59:37.273Z,21.54
2019-05-21T10:02:18.130Z,21.22
2019-05-21T10:04:51.707Z,21.03
2019-05-21T10:07:39.350Z,20.86
2019-05-21T10:10:03.479Z,21.32
2019-05-21T10:12:37.174Z,20.85
2019-05-21T10:15:11.259Z,21.45
2019-05-21T10:17:45.035Z,21.55
2019-05-21T10:20:19.768Z,21.87
2019-05-21T10:22:54.030Z,21.31
2019-05-21T10:25:28.290Z,21.19
2019-05-21T10:28:02.750Z,21.47
2019-05-21T10:30:36.335Z,21.36
2019-05-21T10:33:09.748Z,21.11
2019-05-21T10:35:43.726Z,22.00
2019-05-21T10:38:18.128Z,22.48
2019-05-21T10:40:52.164Z,21.98
2019-05-21T10:43:26.588Z,21.44
2019-05-21T10:45:59.879Z,20.97
2019-05-21T10:48:34.000Z,20.02
2019-05-21T10:51:09.589Z,19.45
2019-05-21T10:53:44.649Z,19.33
2019-05-21T10:56:20.576Z,18.54
2019-05-21T10:58:54.853Z,18.95
2019-05-21T11:01:57.944Z,19.28
2019-05-21T11:04:49.011Z,19.78
2019-05-21T11:07:23.522Z,19.72
2019-05-21T11:09:58.653Z,19.22
2019-05-21T11:12:34.118Z,19.18
2019-05-21T11:15:09.673Z,19.75
2019-05-21T11:18:07.082Z,20.19
2019-05-21T11:20:23.392Z,20.73
2019-05-21T11:22:58.582Z,21.27
2019-05-21T11:25:34.158Z,21.94
2019-05-21T11:28:09.605Z,21.30
2019-05-21T11:30:44.277Z,21.10
2019-05-21T11:33:18.934Z,20.86
2019-05-21T11:35:53.218Z,20.75
2019-05-21T11:38:39.397Z,21.02
2019-05-21T11:41:02.171Z,20.07
2019-05-21T11:43:37.013Z,20.71
2019-05-21T11:46:10.821Z,20.83
2019-05-21T11:48:46.306Z,20.81
2019-05-21T11:51:20.216Z,20.80
2019-05-21T11:53:53.765Z,20.56
2019-05-21T11:56:27.855Z,20.41
2019-05-21T11:59:02.560Z,20.35
2019-05-21T12:01:36.802Z,20.06
2019-05-21T12:04:12.303Z,19.92
2019-05-21T12:06:48.542Z,19.88
2019-05-21T12:09:23.001Z,19.97
2019-05-21T12:11:58.654Z,19.97
2019-05-21T12:14:32.306Z,19.91
2019-05-21T12:17:06.148Z,20.20
2019-05-21T12:19:39.664Z,21.17
2019-05-21T12:22:13.850Z,21.20
2019-05-21T12:24:48.810Z,20.97
2019-05-21T12:27:22.057Z,20.45
2019-05-21T12:29:55.734Z,20.03
2019-05-21T12:32:30.230Z,19.70
2019-05-21T12:35:03.748Z,19.21
2019-05-21T12:37:38.427Z,18.61
2019-05-21T12:40:13.417Z,18.14
2019-05-21T12:42:48.908Z,17.84
2019-05-21T12:45:22.957Z,17.66
2019-05-21T12:47:57.441Z,17.23
2019-05-21T12:50:31.978Z,16.95
2019-05-21T12:53:09.926Z,16.74
2019-05-21T12:55:43.650Z,16.61
2019-05-21T12:58:16.955Z,16.41
2019-05-21T13:00:51.252Z,16.39
2019-05-21T13:03:24.585Z,16.26
2019-05-21T13:05:59.698Z,16.34
2019-05-21T13:08:33.388Z,16.31
2019-05-21T13:11:11.638Z,16.40
2019-05-21T13:13:49.874Z,16.45
2019-05-21T13:16:27.419Z,16.53
2019-05-21T13:19:03.126Z,16.53
2019-05-21T13:21:37.605Z,16.35
2019-05-21T13:24:11.823Z,16.23
2019-05-21T13:26:47.983Z,16.15
2019-05-21T13:29:22.211Z,16.34
2019-05-21T13:31:56.571Z,16.59
2019-05-21T13:34:32.449Z,17.32
2019-05-21T13:37:07.272Z,17.59
2019-05-21T13:39:49.794Z,17.50
2019-05-21T13:42:20.881Z,17.55
2019-05-21T13:44:55.502Z,17.84
2019-05-21T13:47:29.074Z,17.70
2019-05-21T13:50:02.871Z,17.83
2019-05-21T13:52:41.363Z,17.64
2019-05-21T13:55:19.802Z,17.75
2019-05-21T13:58:02.027Z,17.79
2019-05-21T14:00:46.796Z,17.81
2019-05-21T14:03:22.248Z,17.65
2019-05-21T14:05:58.104Z,17.64
2019-05-21T14:08:38.675Z,17.72
2019-05-21T14:11:15.464Z,17.80
2019-05-21T14:13:50.564Z,17.94
2019-05-21T14:16:25.823Z,17.95
2019-05-21T14:18:59.926Z,18.03
2019-05-21T14:21:34.238Z,18.17
2019-05-21T14:24:12.346Z,18.18
2019-05-21T14:26:46.503Z,18.12
2019-05-21T14:29:20.028Z,17.99
2019-05-21T14:31:54.890Z,18.01
2019-05-21T14:34:29.770Z,17.94
2019-05-21T14:37:03.751Z,17.99
2019-05-21T14:39:37.323Z,18.08
2019-05-21T14:42:11.330Z,17.80
2019-05-21T14:44:45.311Z,17.92
2019-05-21T14:47:21.689Z,17.65
2019-05-21T14:49:55.968Z,18.01
2019-05-21T14:52:29.278Z,18.05
2019-05-21T14:55:03.336Z,18.10
2019-05-21T14:57:37.697Z,18.10
2019-05-21T15:00:21.390Z,17.97
2019-05-21T15:02:54.915Z,18.13
2019-05-21T15:05:29.854Z,18.05
2019-05-21T15:08:03.592Z,17.82
2019-05-21T15:10:48.611Z,17.77
2019-05-21T15:13:15.242Z,17.85
2019-05-21T15:15:49.810Z,17.52
2019-05-21T15:18:23.605Z,17.78
2019-05-21T15:21:12.172Z,17.75
2019-05-21T15:23:47.871Z,17.82
2019-05-21T15:26:21.975Z,17.72
2019-05-21T15:29:04.364Z,17.75
2019-05-21T15:31:40.385Z,17.39
2019-05-21T15:34:17.560Z,17.52
2019-05-21T15:36:51.351Z,17.59
2019-05-21T15:39:25.133Z,17.52
2019-05-21T15:41:59.476Z,17.40
2019-05-21T15:44:33.253Z,17.31
2019-05-21T15:47:07.962Z,17.37
2019-05-21T15:49:43.830Z,17.39
2019-05-21T15:52:26.920Z,17.45
2019-05-21T15:55:06.564Z,17.53
2019-05-21T15:57:44.514Z,17.65
2019-05-21T16:00:20.642Z,17.55
2019-05-21T16:02:55.486Z,17.80
2019-05-21T16:05:29.068Z,17.96
2019-05-21T16:08:03.459Z,17.87
2019-05-21T16:10:37.751Z,17.82
2019-05-21T16:13:11.739Z,17.78
2019-05-21T16:15:47.641Z,17.72
2019-05-21T16:18:22.411Z,17.79
2019-05-21T16:21:05.503Z,17.87
2019-05-21T16:23:39.168Z,17.69
2019-05-21T16:26:13.125Z,17.89
2019-05-21T16:28:46.893Z,17.72
2019-05-21T16:31:20.509Z,17.61
2019-05-21T16:33:55.147Z,17.56
2019-05-21T16:36:28.864Z,17.93
2019-05-21T16:39:02.257Z,17.90
2019-05-21T16:41:44.520Z,17.92
2019-05-21T16:44:11.068Z,17.54
2019-05-21T16:46:44.705Z,17.32
2019-05-21T16:49:18.983Z,17.19
2019-05-21T16:51:53.116Z,17.19
2019-05-21T16:54:27.133Z,17.12
2019-05-21T16:57:01.510Z,17.19
2019-05-21T16:59:35.768Z,17.12
2019-05-21T17:02:09.554Z,17.06
2019-05-21T17:04:44.557Z,17.19
2019-05-21T17:07:18.047Z,17.18
2019-05-21T17:09:55.826Z,17.04
2019-05-21T17:12:29.905Z,17.05
2019-05-21T17:15:05.132Z,17.05
2019-05-21T17:17:38.841Z,16.99
2019-05-21T17:20:12.749Z,16.86
2019-05-21T17:22:46.560Z,16.91
2019-05-21T17:25:20.621Z,16.97
2019-05-21T17:27:53.697Z,16.99
2019-05-21T17:30:27.216Z,17.02
2019-05-21T17:33:00.914Z,16.89
2019-05-21T17:35:34.555Z,16.89
2019-05-21T17:38:08.344Z,16.88
2019-05-21T17:40:41.691Z,16.79
2019-05-21T17:43:16.238Z,16.63
2019-05-21T17:45:49.303Z,16.60
2019-05-21T17:48:23.086Z,16.51
2019-05-21T17:50:56.574Z,16.48
2019-05-21T17:53:31.053Z,16.45
2019-05-21T17:56:04.905Z,16.45
2019-05-21T17:58:44.329Z,16.43
2019-05-21T18:01:19.160Z,16.33
2019-05-21T18:03:55.576Z,16.14
2019-05-21T18:06:30.261Z,16.04
2019-05-21T18:09:09.604Z,15.97
2019-05-21T18:11:44.630Z,15.91
2019-05-21T18:14:19.545Z,15.87
2019-05-21T18:16:56.031Z,15.81
2019-05-21T18:19:32.159Z,15.78
2019-05-21T18:22:09.795Z,15.67
2019-05-21T18:24:48.428Z,15.65
2019-05-21T18:27:20.850Z,15.60
2019-05-21T18:29:56.771Z,15.54
2019-05-21T18:32:31.114Z,15.54
2019-05-21T18:35:05.968Z,15.43
2019-05-21T18:37:40.585Z,15.36
2019-05-21T18:40:16.258Z,15.35
2019-05-21T18:42:51.888Z,15.31
2019-05-21T18:45:26.313Z,15.28
2019-05-21T18:48:01.238Z,15.30
2019-05-21T18:50:37.094Z,15.27
2019-05-21T18:53:10.713Z,15.33
2019-05-21T18:55:44.466Z,15.32
2019-05-21T18:58:18.943Z,15.39
2019-05-21T19:00:52.363Z,15.48
2019-05-21T19:03:30.448Z,15.50
2019-05-21T19:06:04.489Z,15.49
2019-05-21T19:08:38.736Z,15.54
2019-05-21T19:11:13.988Z,15.49
2019-05-21T19:13:49.506Z,15.48
2019-05-21T19:16:23.703Z,15.42
2019-05-21T19:18:57.883Z,15.38
2019-05-21T19:21:32.464Z,15.37
2019-05-21T19:24:07.204Z,15.26
2019-05-21T19:26:44.173Z,15.22
2019-05-21T19:29:27.698Z,15.15
2019-05-21T19:32:02.064Z,15.13
2019-05-21T19:34:37.344Z,15.03
2019-05-21T19:37:11.951Z,14.95
2019-05-21T19:39:46.326Z,14.97
2019-05-21T19:42:21.978Z,14.91
2019-05-21T19:44:57.716Z,14.93
2019-05-21T19:47:36.194Z,14.90
2019-05-21T19:50:13.610Z,14.96
2019-05-21T19:52:49.327Z,14.97
2019-05-21T19:55:28.221Z,14.98
2019-05-21T19:58:04.624Z,15.01
2019-05-21T20:00:44.441Z,15.01
2019-05-21T20:03:21.058Z,15.07
2019-05-21T20:05:54.982Z,15.05
2019-05-21T20:08:30.649Z,15.07
2019-05-21T20:11:06.806Z,15.06
2019-05-21T20:13:43.971Z,15.06
2019-05-21T20:16:19.893Z,15.05
2019-05-21T20:18:54.627Z,15.03
2019-05-21T20:21:32.147Z,14.99
2019-05-21T20:24:10.993Z,14.97
2019-05-21T20:26:47.329Z,15.00
2019-05-21T20:29:23.843Z,15.03
2019-05-21T20:31:59.845Z,15.17
2019-05-21T20:34:35.734Z,15.15
2019-05-21T20:37:13.393Z,15.07
2019-05-21T20:39:53.317Z,15.12
2019-05-21T20:42:30.379Z,15.07
2019-05-21T20:45:10.309Z,15.03
2019-05-21T20:47:55.538Z,15.01
2019-05-21T20:50:30.111Z,14.91
2019-05-21T20:53:04.695Z,14.85
2019-05-21T20:55:39.103Z,14.82
2019-05-21T20:58:15.196Z,14.79
2019-05-21T21:00:54.845Z,14.78
2019-05-21T21:03:33.427Z,14.79
2019-05-21T21:06:09.126Z,14.97
2019-05-21T21:08:44.733Z,14.99
2019-05-21T21:11:20.269Z,14.92
2019-05-21T21:13:55.896Z,14.92
2019-05-21T21:16:30.288Z,14.99
2019-05-21T21:19:06.947Z,14.94
2019-05-21T21:21:48.183Z,14.96
2019-05-21T21:24:23.543Z,14.86
2019-05-21T21:26:57.738Z,14.78
2019-05-21T21:29:34.873Z,14.76
2019-05-21T21:32:11.126Z,14.69
2019-05-21T21:34:44.991Z,14.84
2019-05-21T21:37:19.696Z,14.79
2019-05-21T21:39:53.898Z,14.76
2019-05-21T21:42:28.826Z,14.72
2019-05-21T21:45:03.379Z,14.70
2019-05-21T21:47:37.959Z,14.61
2019-05-21T21:50:14.335Z,14.58
2019-05-21T21:52:49.546Z,14.53
2019-05-21T21:55:24.244Z,14.53
2019-05-21T21:57:58.153Z,14.48
2019-05-21T22:01:50.083Z,14.50
2019-05-21T22:04:35.289Z,14.48
2019-05-21T22:07:09.726Z,14.49
2019-05-21T22:09:44.470Z,14.45
2019-05-21T22:12:21.018Z,14.44
2019-05-21T22:15:06.310Z,14.48
2019-05-21T22:17:40.766Z,14.44
2019-05-21T22:20:15.711Z,14.42
2019-05-21T22:22:50.103Z,14.25
2019-05-21T22:25:23.323Z,14.14
2019-05-21T22:27:56.752Z,14.07
2019-05-21T22:30:31.713Z,14.02
2019-05-21T22:33:05.983Z,13.99
2019-05-21T22:35:40.388Z,13.98
2019-05-21T22:38:14.425Z,13.95
2019-05-21T22:40:48.186Z,13.91
2019-05-21T22:43:21.811Z,13.78
2019-05-21T22:45:55.890Z,13.67
2019-05-21T22:48:29.702Z,13.52
2019-05-21T22:51:10.995Z,13.50
2019-05-21T22:53:46.043Z,13.58
2019-05-21T22:56:19.803Z,13.62
2019-05-21T22:58:53.828Z,13.69
2019-05-21T23:01:29.015Z,13.61
2019-05-21T23:04:03.264Z,13.56
2019-05-21T23:06:36.638Z,13.53
2019-05-21T23:09:11.336Z,13.43
2019-05-21T23:11:45.615Z,13.40
2019-05-21T23:14:20.372Z,13.41
2019-05-21T23:16:54.385Z,13.56
2019-05-21T23:19:28.589Z,13.62
2019-05-21T23:22:03.334Z,13.79
2019-05-21T23:24:38.806Z,13.87
2019-05-21T23:27:14.797Z,13.88
2019-05-21T23:29:49.078Z,13.87
2019-05-21T23:32:23.957Z,13.78
2019-05-21T23:34:57.543Z,13.78
2019-05-21T23:37:32.545Z,13.78
2019-05-21T23:40:07.210Z,13.75
2019-05-21T23:42:42.948Z,13.73
2019-05-21T23:45:20.082Z,13.67
2019-05-21T23:47:53.410Z,13.64
2019-05-21T23:50:33.408Z,13.60
2019-05-21T23:53:07.976Z,13.58
2019-05-21T23:55:42.055Z,13.48
2019-05-21T23:58:15.952Z,13.36
